EHDL

Details ICAO EHDL
Name Deelen
Region Netherlands
Timezone Europe/Amsterdam (UTC+1.0)
Plans Departing 4
Arriving 5
Stats Elevation 158 ft / 48 m (AMSL)
Location 52.059667° 5.872001°
Runways 1
Magnetic Variation 1.503° E
Sunrise 2017-12-17 07:41:33 UTC / 2017-12-17 08:41:33 Local
Sunset 2017-12-17 15:26:26 UTC / 2017-12-17 16:26:26 Local
Advertisement - Login to hide

Runways

ID Width Length Bearing (true) Bearing (mag) Surface Threshold Offset Overrun Length
02 164 ft / 50 m 9,671 ft / 2,948 m 17.48° 15.98° Asphalt 895 ft / 273 m 0 ft / 0 m
20 164 ft / 50 m 9,671 ft / 2,948 m 197.49° 195.99° Asphalt 899 ft / 274 m 0 ft / 0 m

Map

Weather


0- 5 10 15 20 25 30 35+ Temperature / ° C

Clouds and Precipitation
Forecast for 2017-12-17 06:00 UTC. Updated an hour ago

Ground ~20,000 ft ~40,000 ft Winds

METAR

EHDL 170155Z AUTO VRB02KT 6000 BR FEW073 M01/M01 Q1018 REFZRA WHT

TAF

Not found

Frequencies

Tower 122.10 MHz TWR
Approach 123.57 MHz RAPCON WEST MIL ATCC
Warning: Do not use this data for real-world aviation or navigation. No guarantee of current accuracy is given.